EST,Max TemperatureF,Mean TemperatureF,Min TemperatureF,Max Dew PointF,MeanDew PointF,Min DewpointF,Max Humidity, Mean Humidity, Min Humidity, Max Sea Level PressureIn, Mean Sea Level PressureIn, Min Sea Level PressureIn, Max VisibilityMiles, Mean VisibilityMiles, Min VisibilityMiles, Max Wind SpeedMPH, Mean Wind SpeedMPH, Max Gust SpeedMPH,PrecipitationIn, CloudCover, Events, WindDirDegrees
2013-2-1,26,21,15,18,9,1,80,58,36,30.17,29.84,29.61,10,8,1,22,9,26,T,6,Snow,272
2013-2-2,22,14,5,18,10,0,91,72,53,30.24,30.11,30.02,10,8,2,14,4,18,T,6,Snow,202
2013-2-3,27,16,4,13,7,0,96,69,42,30.06,29.92,29.79,10,9,2,7,1,9,0.00,2,,27
2013-2-4,26,19,12,13,4,-1,80,57,33,29.97,29.87,29.78,10,10,10,25,8,39,0.00,4,,246
2013-2-5,25,14,3,13,5,-2,88,64,40,30.06,29.98,29.92,10,10,10,10,2,13,0.00,1,,100
2013-2-6,35,24,13,21,8,-5,84,52,20,30.39,30.09,29.90,10,9,6,20,6,26,T,4,Snow,266
2013-2-7,19,14,8,3,-1,-3,66,55,43,30.61,30.50,30.40,10,10,10,12,6,14,0.00,5,,56
2013-2-8,29,22,14,21,16,2,92,75,58,30.42,30.09,29.84,10,3,0,18,9,28,0.11,8,Fog-Snow,6
2013-2-9,24,8,-9,19,6,-12,88,64,39,30.42,30.09,29.85,10,7,1,25,9,31,0.02,5,Snow,17
2013-2-10,24,4,-16,2,-7,-20,91,63,34,30.56,30.45,30.32,10,10,7,6,0,7,T,0,,160
2013-2-11,38,21,3,36,22,1,92,80,67,30.27,29.88,29.64,10,5,0,13,2,16,0.06,8,Fog-Rain-Snow,214
2013-2-12,40,36,32,26,25,22,70,62,54,29.91,29.78,29.68,10,10,10,21,7,28,0.00,8,,239
2013-2-13,36,29,21,24,21,18,88,70,52,29.89,29.83,29.77,10,10,10,12,4,16,0.00,5,,207
2013-2-14,38,27,16,23,19,14,92,70,47,29.97,29.91,29.76,10,10,9,13,2,17,0.00,4,,173
2013-2-15,46,34,22,27,23,18,100,68,36,30.00,29.91,29.87,10,5,0,18,6,26,0.01,6,Fog-Snow,251
2013-2-16,34,28,22,26,15,5,92,66,39,30.01,29.97,29.90,10,10,9,18,6,22,T,3,Snow,17
2013-2-17,23,17,10,5,0,-4,59,47,34,29.92,29.80,29.70,10,10,10,24,13,35,0.00,0,,351
2013-2-18,31,17,2,8,-2,-8,76,48,19,30.20,30.14,29.97,10,10,10,13,3,16,0.00,0,,308
2013-2-19,40,26,11,31,23,8,92,67,41,30.18,29.80,29.62,10,5,0,24,2,32,0.22,6,Fog-Rain-Snow,200
2013-2-20,33,28,23,28,17,11,92,71,50,29.85,29.73,29.62,10,10,3,17,9,26,T,7,Snow,252
2013-2-21,27,20,13,15,7,1,71,59,46,30.41,30.08,29.87,10,10,10,17,9,24,0.00,6,,339
2013-2-22,34,25,16,23,18,13,84,68,51,30.46,30.36,30.26,10,10,10,12,2,16,0.00,4,,54
2013-2-23,34,32,29,31,29,21,92,78,63,30.25,30.01,29.89,10,4,1,7,1,8,0.21,8,Snow,182
2013-2-24,36,34,31,34,31,28,100,91,82,29.99,29.83,29.76,9,3,0,10,1,15,0.05,8,Fog-Rain-Snow,258
2013-2-25,37,29,21,30,25,19,100,82,64,30.26,30.09,29.96,10,5,0,6,1,8,0.00,7,Fog,100
2013-2-26,41,32,22,30,26,20,100,77,54,30.34,30.27,30.08,10,5,0,10,2,14,0.00,5,Fog,64
2013-2-27,40,36,31,33,30,23,100,80,59,30.07,29.82,29.62,10,7,0,17,8,22,0.34,8,Fog-Rain-Snow,23
2013-2-28,42,37,32,34,32,30,96,82,67,29.63,29.59,29.56,10,8,2,9,1,12,T,8,Rain,191